sensor_id;sensor_type;location;lat;lon;timestamp;P1;durP1;ratioP1;P2;durP2;ratioP2
45236;SDS011;30973;51.442;3.580;2023-08-08T00:00:20;14.25;;;3.13;;
45236;SDS011;30973;51.442;3.580;2023-08-08T00:02:47;8.73;;;2.90;;
45236;SDS011;30973;51.442;3.580;2023-08-08T00:05:13;10.52;;;3.25;;
45236;SDS011;30973;51.442;3.580;2023-08-08T00:07:40;13.23;;;3.28;;
45236;SDS011;30973;51.442;3.580;2023-08-08T00:10:07;13.15;;;3.30;;
45236;SDS011;30973;51.442;3.580;2023-08-08T00:12:33;12.85;;;3.17;;
45236;SDS011;30973;51.442;3.580;2023-08-08T00:15:00;11.45;;;3.30;;
45236;SDS011;30973;51.442;3.580;2023-08-08T00:17:26;12.57;;;3.30;;
45236;SDS011;30973;51.442;3.580;2023-08-08T00:19:53;11.32;;;3.42;;
45236;SDS011;30973;51.442;3.580;2023-08-08T00:22:20;10.45;;;3.38;;
45236;SDS011;30973;51.442;3.580;2023-08-08T00:24:46;14.70;;;3.83;;
45236;SDS011;30973;51.442;3.580;2023-08-08T00:27:13;15.63;;;3.00;;
45236;SDS011;30973;51.442;3.580;2023-08-08T00:29:39;10.63;;;3.15;;
45236;SDS011;30973;51.442;3.580;2023-08-08T00:32:06;10.15;;;3.55;;
45236;SDS011;30973;51.442;3.580;2023-08-08T00:34:33;13.60;;;3.75;;
45236;SDS011;30973;51.442;3.580;2023-08-08T00:36:59;11.88;;;3.45;;
45236;SDS011;30973;51.442;3.580;2023-08-08T00:39:26;11.50;;;3.55;;
45236;SDS011;30973;51.442;3.580;2023-08-08T00:41:52;15.50;;;3.85;;
45236;SDS011;30973;51.442;3.580;2023-08-08T00:44:19;14.70;;;3.42;;
45236;SDS011;30973;51.442;3.580;2023-08-08T00:46:46;13.18;;;3.20;;
45236;SDS011;30973;51.442;3.580;2023-08-08T00:49:13;18.08;;;4.00;;
45236;SDS011;30973;51.442;3.580;2023-08-08T00:51:39;12.95;;;3.28;;
45236;SDS011;30973;51.442;3.580;2023-08-08T00:54:06;12.77;;;3.75;;
45236;SDS011;30973;51.442;3.580;2023-08-08T00:56:33;10.77;;;3.90;;
45236;SDS011;30973;51.442;3.580;2023-08-08T00:59:00;11.38;;;3.22;;
45236;SDS011;30973;51.442;3.580;2023-08-08T01:01:26;10.25;;;3.17;;
45236;SDS011;30973;51.442;3.580;2023-08-08T01:03:53;11.05;;;3.45;;
45236;SDS011;30973;51.442;3.580;2023-08-08T01:08:55;9.15;;;3.17;;
45236;SDS011;30973;51.442;3.580;2023-08-08T01:11:23;12.30;;;3.92;;
45236;SDS011;30973;51.442;3.580;2023-08-08T01:13:51;11.07;;;3.67;;
45236;SDS011;30973;51.442;3.580;2023-08-08T01:16:19;13.25;;;3.20;;
45236;SDS011;30973;51.442;3.580;2023-08-08T01:18:47;10.38;;;2.78;;
45236;SDS011;30973;51.442;3.580;2023-08-08T01:21:16;15.20;;;3.22;;
45236;SDS011;30973;51.442;3.580;2023-08-08T01:23:49;15.95;;;3.47;;
45236;SDS011;30973;51.442;3.580;2023-08-08T01:26:19;11.88;;;3.33;;
45236;SDS011;30973;51.442;3.580;2023-08-08T01:28:46;14.30;;;3.63;;
45236;SDS011;30973;51.442;3.580;2023-08-08T01:31:13;14.50;;;3.53;;
45236;SDS011;30973;51.442;3.580;2023-08-08T01:33:40;11.30;;;3.50;;
45236;SDS011;30973;51.442;3.580;2023-08-08T01:36:09;12.23;;;3.53;;
45236;SDS011;30973;51.442;3.580;2023-08-08T01:38:44;8.93;;;2.80;;
45236;SDS011;30973;51.442;3.580;2023-08-08T01:41:10;8.57;;;3.00;;
45236;SDS011;30973;51.442;3.580;2023-08-08T01:43:37;9.05;;;2.92;;
45236;SDS011;30973;51.442;3.580;2023-08-08T01:46:04;8.32;;;3.40;;
45236;SDS011;30973;51.442;3.580;2023-08-08T01:48:31;10.10;;;3.17;;
45236;SDS011;30973;51.442;3.580;2023-08-08T01:50:58;12.27;;;3.30;;
45236;SDS011;30973;51.442;3.580;2023-08-08T01:53:24;5.80;;;2.88;;
45236;SDS011;30973;51.442;3.580;2023-08-08T01:55:52;10.63;;;2.92;;
45236;SDS011;30973;51.442;3.580;2023-08-08T01:58:18;9.63;;;2.90;;
45236;SDS011;30973;51.442;3.580;2023-08-08T02:00:45;9.23;;;3.25;;
45236;SDS011;30973;51.442;3.580;2023-08-08T02:03:13;7.22;;;2.67;;
45236;SDS011;30973;51.442;3.580;2023-08-08T02:05:39;5.68;;;2.40;;
45236;SDS011;30973;51.442;3.580;2023-08-08T02:08:06;7.40;;;2.80;;
45236;SDS011;30973;51.442;3.580;2023-08-08T02:10:34;10.65;;;2.85;;
45236;SDS011;30973;51.442;3.580;2023-08-08T02:13:00;10.23;;;2.80;;
45236;SDS011;30973;51.442;3.580;2023-08-08T02:15:27;8.40;;;2.72;;
45236;SDS011;30973;51.442;3.580;2023-08-08T02:17:54;7.53;;;2.75;;
45236;SDS011;30973;51.442;3.580;2023-08-08T02:20:21;5.47;;;2.63;;
45236;SDS011;30973;51.442;3.580;2023-08-08T02:22:48;6.28;;;2.42;;
45236;SDS011;30973;51.442;3.580;2023-08-08T02:25:14;8.57;;;2.53;;
45236;SDS011;30973;51.442;3.580;2023-08-08T02:27:41;6.20;;;2.65;;
45236;SDS011;30973;51.442;3.580;2023-08-08T02:30:09;8.02;;;2.53;;
45236;SDS011;30973;51.442;3.580;2023-08-08T02:32:35;5.35;;;2.97;;
45236;SDS011;30973;51.442;3.580;2023-08-08T02:35:02;7.53;;;2.25;;
45236;SDS011;30973;51.442;3.580;2023-08-08T02:37:29;7.40;;;2.70;;
45236;SDS011;30973;51.442;3.580;2023-08-08T02:39:55;7.28;;;2.75;;
45236;SDS011;30973;51.442;3.580;2023-08-08T02:42:22;6.53;;;2.83;;
45236;SDS011;30973;51.442;3.580;2023-08-08T02:44:48;7.28;;;2.53;;
45236;SDS011;30973;51.442;3.580;2023-08-08T02:47:15;7.55;;;2.58;;
45236;SDS011;30973;51.442;3.580;2023-08-08T02:49:42;7.03;;;2.65;;
45236;SDS011;30973;51.442;3.580;2023-08-08T02:52:08;7.70;;;2.13;;
45236;SDS011;30973;51.442;3.580;2023-08-08T02:54:35;9.32;;;2.17;;
45236;SDS011;30973;51.442;3.580;2023-08-08T02:57:02;8.35;;;1.90;;
45236;SDS011;30973;51.442;3.580;2023-08-08T02:59:29;7.13;;;2.05;;
45236;SDS011;30973;51.442;3.580;2023-08-08T03:01:56;4.45;;;1.80;;
45236;SDS011;30973;51.442;3.580;2023-08-08T03:04:22;4.47;;;1.75;;
45236;SDS011;30973;51.442;3.580;2023-08-08T03:06:49;6.53;;;1.77;;
45236;SDS011;30973;51.442;3.580;2023-08-08T03:09:16;4.82;;;1.67;;
45236;SDS011;30973;51.442;3.580;2023-08-08T03:11:43;5.35;;;1.60;;
45236;SDS011;30973;51.442;3.580;2023-08-08T03:14:13;3.85;;;1.27;;
45236;SDS011;30973;51.442;3.580;2023-08-08T03:16:40;5.85;;;1.42;;
45236;SDS011;30973;51.442;3.580;2023-08-08T03:19:08;4.47;;;1.45;;
45236;SDS011;30973;51.442;3.580;2023-08-08T03:21:36;5.97;;;1.35;;
45236;SDS011;30973;51.442;3.580;2023-08-08T03:24:03;3.83;;;1.80;;
45236;SDS011;30973;51.442;3.580;2023-08-08T03:26:29;5.78;;;1.60;;
45236;SDS011;30973;51.442;3.580;2023-08-08T03:28:56;4.63;;;1.60;;
45236;SDS011;30973;51.442;3.580;2023-08-08T03:31:30;3.50;;;1.50;;
45236;SDS011;30973;51.442;3.580;2023-08-08T03:33:57;4.78;;;1.98;;
45236;SDS011;30973;51.442;3.580;2023-08-08T03:36:24;4.03;;;1.88;;
45236;SDS011;30973;51.442;3.580;2023-08-08T03:38:51;3.15;;;1.70;;
45236;SDS011;30973;51.442;3.580;2023-08-08T03:41:17;3.35;;;1.38;;
45236;SDS011;30973;51.442;3.580;2023-08-08T03:43:44;5.22;;;1.42;;
45236;SDS011;30973;51.442;3.580;2023-08-08T03:46:11;3.03;;;1.40;;
45236;SDS011;30973;51.442;3.580;2023-08-08T03:48:38;4.25;;;1.60;;
45236;SDS011;30973;51.442;3.580;2023-08-08T03:51:05;4.15;;;1.30;;
45236;SDS011;30973;51.442;3.580;2023-08-08T03:53:33;4.38;;;1.30;;
45236;SDS011;30973;51.442;3.580;2023-08-08T03:55:59;3.85;;;1.52;;
45236;SDS011;30973;51.442;3.580;2023-08-08T03:58:26;2.83;;;1.33;;
45236;SDS011;30973;51.442;3.580;2023-08-08T04:00:53;4.30;;;1.17;;
45236;SDS011;30973;51.442;3.580;2023-08-08T04:03:19;3.10;;;1.30;;
45236;SDS011;30973;51.442;3.580;2023-08-08T04:05:47;4.63;;;1.30;;
45236;SDS011;30973;51.442;3.580;2023-08-08T04:08:14;4.22;;;1.25;;
45236;SDS011;30973;51.442;3.580;2023-08-08T04:10:41;4.78;;;1.38;;
45236;SDS011;30973;51.442;3.580;2023-08-08T04:13:09;3.15;;;1.10;;
45236;SDS011;30973;51.442;3.580;2023-08-08T04:15:36;3.95;;;1.27;;
45236;SDS011;30973;51.442;3.580;2023-08-08T04:18:02;1.98;;;1.10;;
45236;SDS011;30973;51.442;3.580;2023-08-08T04:20:29;3.40;;;1.20;;
45236;SDS011;30973;51.442;3.580;2023-08-08T04:22:56;5.35;;;1.40;;
45236;SDS011;30973;51.442;3.580;2023-08-08T04:25:22;3.33;;;1.10;;
45236;SDS011;30973;51.442;3.580;2023-08-08T04:27:49;4.30;;;1.40;;
45236;SDS011;30973;51.442;3.580;2023-08-08T04:30:16;3.63;;;1.30;;
45236;SDS011;30973;51.442;3.580;2023-08-08T04:32:42;3.80;;;1.42;;
45236;SDS011;30973;51.442;3.580;2023-08-08T04:35:09;3.30;;;1.17;;
45236;SDS011;30973;51.442;3.580;2023-08-08T04:37:36;5.25;;;1.45;;
45236;SDS011;30973;51.442;3.580;2023-08-08T04:40:02;3.10;;;1.10;;
45236;SDS011;30973;51.442;3.580;2023-08-08T04:42:30;3.63;;;1.15;;
45236;SDS011;30973;51.442;3.580;2023-08-08T04:44:56;4.72;;;1.30;;
45236;SDS011;30973;51.442;3.580;2023-08-08T04:47:23;2.83;;;1.27;;
45236;SDS011;30973;51.442;3.580;2023-08-08T04:49:50;3.58;;;1.20;;
45236;SDS011;30973;51.442;3.580;2023-08-08T04:52:16;4.22;;;1.40;;
45236;SDS011;30973;51.442;3.580;2023-08-08T04:54:43;4.57;;;1.30;;
45236;SDS011;30973;51.442;3.580;2023-08-08T04:57:10;4.63;;;1.20;;
45236;SDS011;30973;51.442;3.580;2023-08-08T04:59:37;4.05;;;1.50;;
45236;SDS011;30973;51.442;3.580;2023-08-08T05:02:04;4.78;;;1.33;;
45236;SDS011;30973;51.442;3.580;2023-08-08T05:04:32;6.05;;;1.40;;
45236;SDS011;30973;51.442;3.580;2023-08-08T05:06:58;6.47;;;1.40;;
45236;SDS011;30973;51.442;3.580;2023-08-08T05:09:25;3.42;;;1.30;;
45236;SDS011;30973;51.442;3.580;2023-08-08T05:11:54;4.70;;;1.30;;
45236;SDS011;30973;51.442;3.580;2023-08-08T05:14:21;3.67;;;1.25;;
45236;SDS011;30973;51.442;3.580;2023-08-08T05:16:47;4.75;;;1.48;;
45236;SDS011;30973;51.442;3.580;2023-08-08T05:19:14;3.15;;;1.67;;
45236;SDS011;30973;51.442;3.580;2023-08-08T05:21:41;7.45;;;1.65;;
45236;SDS011;30973;51.442;3.580;2023-08-08T05:24:07;6.80;;;1.50;;
45236;SDS011;30973;51.442;3.580;2023-08-08T05:26:34;3.88;;;1.40;;
45236;SDS011;30973;51.442;3.580;2023-08-08T05:29:00;4.80;;;1.35;;
45236;SDS011;30973;51.442;3.580;2023-08-08T05:31:27;6.20;;;2.28;;
45236;SDS011;30973;51.442;3.580;2023-08-08T05:33:53;4.38;;;1.40;;
45236;SDS011;30973;51.442;3.580;2023-08-08T05:36:20;6.38;;;1.38;;
45236;SDS011;30973;51.442;3.580;2023-08-08T05:38:47;4.88;;;1.67;;
45236;SDS011;30973;51.442;3.580;2023-08-08T05:41:13;5.85;;;1.77;;
45236;SDS011;30973;51.442;3.580;2023-08-08T05:43:40;4.13;;;1.35;;
45236;SDS011;30973;51.442;3.580;2023-08-08T05:46:06;5.40;;;1.35;;
45236;SDS011;30973;51.442;3.580;2023-08-08T05:48:33;2.95;;;1.20;;
45236;SDS011;30973;51.442;3.580;2023-08-08T05:51:00;3.70;;;1.33;;
45236;SDS011;30973;51.442;3.580;2023-08-08T05:53:29;3.85;;;1.38;;
45236;SDS011;30973;51.442;3.580;2023-08-08T05:55:55;3.60;;;1.27;;
45236;SDS011;30973;51.442;3.580;2023-08-08T05:58:22;5.97;;;1.27;;
45236;SDS011;30973;51.442;3.580;2023-08-08T06:00:49;4.35;;;1.20;;
45236;SDS011;30973;51.442;3.580;2023-08-08T06:03:16;3.70;;;1.48;;
45236;SDS011;30973;51.442;3.580;2023-08-08T06:05:42;4.28;;;1.38;;
45236;SDS011;30973;51.442;3.580;2023-08-08T06:08:09;3.42;;;1.30;;
45236;SDS011;30973;51.442;3.580;2023-08-08T06:10:38;3.30;;;1.20;;
45236;SDS011;30973;51.442;3.580;2023-08-08T06:13:05;4.40;;;1.40;;
45236;SDS011;30973;51.442;3.580;2023-08-08T06:15:31;3.40;;;1.20;;
45236;SDS011;30973;51.442;3.580;2023-08-08T06:17:59;4.70;;;1.15;;
45236;SDS011;30973;51.442;3.580;2023-08-08T06:20:25;3.25;;;1.10;;
45236;SDS011;30973;51.442;3.580;2023-08-08T06:22:52;4.63;;;1.17;;
45236;SDS011;30973;51.442;3.580;2023-08-08T06:25:19;3.75;;;1.20;;
45236;SDS011;30973;51.442;3.580;2023-08-08T06:27:46;3.72;;;1.23;;
45236;SDS011;30973;51.442;3.580;2023-08-08T06:30:15;3.70;;;1.17;;
45236;SDS011;30973;51.442;3.580;2023-08-08T06:32:42;3.55;;;1.17;;
45236;SDS011;30973;51.442;3.580;2023-08-08T06:35:08;3.25;;;1.13;;
45236;SDS011;30973;51.442;3.580;2023-08-08T06:37:38;2.75;;;0.90;;
45236;SDS011;30973;51.442;3.580;2023-08-08T06:40:05;2.95;;;1.10;;
45236;SDS011;30973;51.442;3.580;2023-08-08T06:42:33;3.42;;;1.23;;
45236;SDS011;30973;51.442;3.580;2023-08-08T06:45:01;3.53;;;1.10;;
45236;SDS011;30973;51.442;3.580;2023-08-08T06:47:27;3.80;;;1.00;;
45236;SDS011;30973;51.442;3.580;2023-08-08T06:49:54;6.43;;;1.20;;
45236;SDS011;30973;51.442;3.580;2023-08-08T06:52:21;3.25;;;1.10;;
45236;SDS011;30973;51.442;3.580;2023-08-08T06:54:48;4.38;;;1.10;;
45236;SDS011;30973;51.442;3.580;2023-08-08T06:57:15;4.07;;;1.10;;
45236;SDS011;30973;51.442;3.580;2023-08-08T06:59:41;4.63;;;1.05;;
45236;SDS011;30973;51.442;3.580;2023-08-08T07:02:08;3.13;;;1.17;;
45236;SDS011;30973;51.442;3.580;2023-08-08T07:04:36;1.95;;;1.00;;
45236;SDS011;30973;51.442;3.580;2023-08-08T07:07:03;2.50;;;0.90;;
45236;SDS011;30973;51.442;3.580;2023-08-08T07:09:29;1.88;;;1.02;;
45236;SDS011;30973;51.442;3.580;2023-08-08T07:11:56;2.35;;;0.80;;
45236;SDS011;30973;51.442;3.580;2023-08-08T07:14:23;4.10;;;1.27;;
45236;SDS011;30973;51.442;3.580;2023-08-08T07:16:50;3.78;;;1.10;;
45236;SDS011;30973;51.442;3.580;2023-08-08T07:19:17;4.72;;;1.20;;
45236;SDS011;30973;51.442;3.580;2023-08-08T07:21:45;4.65;;;1.17;;
45236;SDS011;30973;51.442;3.580;2023-08-08T07:24:13;2.00;;;1.00;;
45236;SDS011;30973;51.442;3.580;2023-08-08T07:26:40;5.65;;;1.17;;
45236;SDS011;30973;51.442;3.580;2023-08-08T07:29:06;3.70;;;1.23;;
45236;SDS011;30973;51.442;3.580;2023-08-08T07:31:33;3.13;;;1.17;;
45236;SDS011;30973;51.442;3.580;2023-08-08T07:34:00;3.40;;;1.10;;
45236;SDS011;30973;51.442;3.580;2023-08-08T07:36:26;4.57;;;1.20;;
45236;SDS011;30973;51.442;3.580;2023-08-08T07:38:53;4.32;;;1.38;;
45236;SDS011;30973;51.442;3.580;2023-08-08T07:41:26;3.42;;;1.23;;
45236;SDS011;30973;51.442;3.580;2023-08-08T07:43:53;4.72;;;1.13;;
45236;SDS011;30973;51.442;3.580;2023-08-08T07:46:19;3.70;;;1.13;;
45236;SDS011;30973;51.442;3.580;2023-08-08T07:48:46;5.82;;;1.17;;
45236;SDS011;30973;51.442;3.580;2023-08-08T07:51:13;2.90;;;1.20;;
45236;SDS011;30973;51.442;3.580;2023-08-08T07:53:39;2.95;;;1.25;;
45236;SDS011;30973;51.442;3.580;2023-08-08T07:56:06;5.38;;;1.30;;
45236;SDS011;30973;51.442;3.580;2023-08-08T07:58:33;6.25;;;1.45;;
45236;SDS011;30973;51.442;3.580;2023-08-08T08:01:00;3.08;;;1.45;;
45236;SDS011;30973;51.442;3.580;2023-08-08T08:03:26;3.70;;;1.20;;
45236;SDS011;30973;51.442;3.580;2023-08-08T08:05:54;4.28;;;1.40;;
45236;SDS011;30973;51.442;3.580;2023-08-08T08:08:20;4.65;;;1.38;;
45236;SDS011;30973;51.442;3.580;2023-08-08T08:10:47;4.57;;;1.52;;
45236;SDS011;30973;51.442;3.580;2023-08-08T08:13:15;4.05;;;1.50;;
45236;SDS011;30973;51.442;3.580;2023-08-08T08:15:42;4.38;;;1.52;;
45236;SDS011;30973;51.442;3.580;2023-08-08T08:18:09;3.75;;;1.63;;
45236;SDS011;30973;51.442;3.580;2023-08-08T08:20:38;2.80;;;1.30;;
45236;SDS011;30973;51.442;3.580;2023-08-08T08:23:04;4.85;;;1.35;;
45236;SDS011;30973;51.442;3.580;2023-08-08T08:25:31;4.57;;;1.38;;
45236;SDS011;30973;51.442;3.580;2023-08-08T08:27:58;7.80;;;1.65;;
45236;SDS011;30973;51.442;3.580;2023-08-08T08:30:25;3.58;;;1.52;;
45236;SDS011;30973;51.442;3.580;2023-08-08T08:32:53;5.90;;;1.63;;
45236;SDS011;30973;51.442;3.580;2023-08-08T08:35:20;2.25;;;1.05;;
45236;SDS011;30973;51.442;3.580;2023-08-08T08:37:47;3.53;;;1.40;;
45236;SDS011;30973;51.442;3.580;2023-08-08T08:40:13;4.05;;;1.40;;
45236;SDS011;30973;51.442;3.580;2023-08-08T08:42:40;5.10;;;1.40;;
45236;SDS011;30973;51.442;3.580;2023-08-08T08:45:08;4.30;;;1.48;;
45236;SDS011;30973;51.442;3.580;2023-08-08T08:47:35;4.85;;;1.42;;
45236;SDS011;30973;51.442;3.580;2023-08-08T08:50:03;5.63;;;1.50;;
45236;SDS011;30973;51.442;3.580;2023-08-08T08:52:30;3.65;;;1.30;;
45236;SDS011;30973;51.442;3.580;2023-08-08T08:54:57;3.45;;;1.45;;
45236;SDS011;30973;51.442;3.580;2023-08-08T08:57:23;3.65;;;1.33;;
45236;SDS011;30973;51.442;3.580;2023-08-08T08:59:50;2.85;;;1.30;;
45236;SDS011;30973;51.442;3.580;2023-08-08T09:02:20;4.07;;;1.00;;
45236;SDS011;30973;51.442;3.580;2023-08-08T09:04:47;3.72;;;1.20;;
45236;SDS011;30973;51.442;3.580;2023-08-08T09:07:13;2.92;;;1.20;;
45236;SDS011;30973;51.442;3.580;2023-08-08T09:09:42;2.65;;;1.30;;
45236;SDS011;30973;51.442;3.580;2023-08-08T09:12:09;1.50;;;0.80;;
45236;SDS011;30973;51.442;3.580;2023-08-08T09:14:39;4.20;;;1.05;;
45236;SDS011;30973;51.442;3.580;2023-08-08T09:17:09;2.92;;;1.30;;
45236;SDS011;30973;51.442;3.580;2023-08-08T09:19:36;4.10;;;0.93;;
45236;SDS011;30973;51.442;3.580;2023-08-08T09:22:03;3.65;;;1.10;;
45236;SDS011;30973;51.442;3.580;2023-08-08T09:24:30;2.10;;;0.90;;
45236;SDS011;30973;51.442;3.580;2023-08-08T09:26:56;4.15;;;1.08;;
45236;SDS011;30973;51.442;3.580;2023-08-08T09:29:23;2.88;;;0.95;;
45236;SDS011;30973;51.442;3.580;2023-08-08T09:31:50;4.43;;;1.15;;
45236;SDS011;30973;51.442;3.580;2023-08-08T09:34:16;2.85;;;1.02;;
45236;SDS011;30973;51.442;3.580;2023-08-08T09:36:43;1.90;;;0.93;;
45236;SDS011;30973;51.442;3.580;2023-08-08T09:39:10;3.30;;;0.90;;
45236;SDS011;30973;51.442;3.580;2023-08-08T09:41:37;2.97;;;0.77;;
45236;SDS011;30973;51.442;3.580;2023-08-08T09:44:05;3.70;;;0.82;;
45236;SDS011;30973;51.442;3.580;2023-08-08T09:46:54;2.20;;;0.95;;
45236;SDS011;30973;51.442;3.580;2023-08-08T09:49:35;3.10;;;0.90;;
45236;SDS011;30973;51.442;3.580;2023-08-08T09:52:19;3.30;;;0.80;;
45236;SDS011;30973;51.442;3.580;2023-08-08T09:55:03;2.47;;;1.00;;
45236;SDS011;30973;51.442;3.580;2023-08-08T09:57:30;3.42;;;0.80;;
45236;SDS011;30973;51.442;3.580;2023-08-08T09:59:56;2.90;;;1.08;;
45236;SDS011;30973;51.442;3.580;2023-08-08T10:02:23;2.50;;;1.00;;
45236;SDS011;30973;51.442;3.580;2023-08-08T10:04:50;2.88;;;1.30;;
45236;SDS011;30973;51.442;3.580;2023-08-08T10:07:17;3.60;;;1.38;;
45236;SDS011;30973;51.442;3.580;2023-08-08T10:09:43;4.53;;;0.98;;
45236;SDS011;30973;51.442;3.580;2023-08-08T10:12:10;2.90;;;0.90;;
45236;SDS011;30973;51.442;3.580;2023-08-08T10:14:37;3.53;;;1.23;;
45236;SDS011;30973;51.442;3.580;2023-08-08T10:17:04;3.67;;;1.00;;
45236;SDS011;30973;51.442;3.580;2023-08-08T10:19:32;3.85;;;1.50;;
45236;SDS011;30973;51.442;3.580;2023-08-08T10:21:59;3.13;;;1.10;;
45236;SDS011;30973;51.442;3.580;2023-08-08T10:24:32;2.03;;;1.05;;
45236;SDS011;30973;51.442;3.580;2023-08-08T10:26:59;6.10;;;1.50;;
45236;SDS011;30973;51.442;3.580;2023-08-08T10:29:27;7.25;;;1.20;;
45236;SDS011;30973;51.442;3.580;2023-08-08T10:32:01;3.58;;;1.38;;
45236;SDS011;30973;51.442;3.580;2023-08-08T10:34:41;4.55;;;1.20;;
45236;SDS011;30973;51.442;3.580;2023-08-08T10:37:09;6.43;;;1.17;;
45236;SDS011;30973;51.442;3.580;2023-08-08T10:39:36;2.63;;;1.00;;
45236;SDS011;30973;51.442;3.580;2023-08-08T10:42:03;2.58;;;1.13;;
45236;SDS011;30973;51.442;3.580;2023-08-08T10:44:30;3.47;;;1.20;;
45236;SDS011;30973;51.442;3.580;2023-08-08T10:46:57;3.75;;;1.30;;
45236;SDS011;30973;51.442;3.580;2023-08-08T10:49:26;2.85;;;1.40;;
45236;SDS011;30973;51.442;3.580;2023-08-08T10:51:52;3.05;;;1.08;;
45236;SDS011;30973;51.442;3.580;2023-08-08T10:54:20;2.83;;;1.25;;
45236;SDS011;30973;51.442;3.580;2023-08-08T10:56:48;3.25;;;1.27;;
45236;SDS011;30973;51.442;3.580;2023-08-08T10:59:16;3.72;;;1.20;;
45236;SDS011;30973;51.442;3.580;2023-08-08T11:01:47;5.75;;;1.25;;
45236;SDS011;30973;51.442;3.580;2023-08-08T11:04:14;4.60;;;1.40;;
45236;SDS011;30973;51.442;3.580;2023-08-08T11:06:41;4.05;;;1.48;;
45236;SDS011;30973;51.442;3.580;2023-08-08T11:09:08;3.80;;;1.40;;
45236;SDS011;30973;51.442;3.580;2023-08-08T11:11:39;3.15;;;1.17;;
45236;SDS011;30973;51.442;3.580;2023-08-08T11:14:12;3.67;;;1.33;;
45236;SDS011;30973;51.442;3.580;2023-08-08T11:16:40;3.28;;;1.38;;
45236;SDS011;30973;51.442;3.580;2023-08-08T11:19:09;9.05;;;1.83;;
45236;SDS011;30973;51.442;3.580;2023-08-08T11:21:37;6.13;;;1.50;;
45236;SDS011;30973;51.442;3.580;2023-08-08T11:24:05;2.28;;;1.10;;
45236;SDS011;30973;51.442;3.580;2023-08-08T11:26:33;6.70;;;1.60;;
45236;SDS011;30973;51.442;3.580;2023-08-08T11:29:00;4.30;;;1.23;;
45236;SDS011;30973;51.442;3.580;2023-08-08T11:31:27;3.38;;;1.10;;
45236;SDS011;30973;51.442;3.580;2023-08-08T11:33:55;4.72;;;1.10;;
45236;SDS011;30973;51.442;3.580;2023-08-08T11:36:22;4.45;;;1.10;;
45236;SDS011;30973;51.442;3.580;2023-08-08T11:38:50;5.30;;;1.40;;
45236;SDS011;30973;51.442;3.580;2023-08-08T11:41:17;3.75;;;1.10;;
45236;SDS011;30973;51.442;3.580;2023-08-08T11:43:45;6.13;;;1.55;;
45236;SDS011;30973;51.442;3.580;2023-08-08T11:46:12;6.10;;;1.58;;
45236;SDS011;30973;51.442;3.580;2023-08-08T11:48:39;3.25;;;1.30;;
45236;SDS011;30973;51.442;3.580;2023-08-08T11:51:06;3.17;;;1.23;;
45236;SDS011;30973;51.442;3.580;2023-08-08T11:53:33;4.18;;;1.27;;
45236;SDS011;30973;51.442;3.580;2023-08-08T11:56:00;4.97;;;1.30;;
45236;SDS011;30973;51.442;3.580;2023-08-08T11:58:27;2.83;;;1.10;;
45236;SDS011;30973;51.442;3.580;2023-08-08T12:00:54;2.70;;;1.20;;
45236;SDS011;30973;51.442;3.580;2023-08-08T12:03:21;2.55;;;1.10;;
45236;SDS011;30973;51.442;3.580;2023-08-08T12:05:48;4.10;;;1.23;;
45236;SDS011;30973;51.442;3.580;2023-08-08T12:08:18;4.15;;;1.13;;
45236;SDS011;30973;51.442;3.580;2023-08-08T12:10:49;4.85;;;1.27;;
45236;SDS011;30973;51.442;3.580;2023-08-08T12:13:20;4.07;;;1.30;;
45236;SDS011;30973;51.442;3.580;2023-08-08T12:15:47;3.28;;;1.20;;
45236;SDS011;30973;51.442;3.580;2023-08-08T12:18:16;4.30;;;1.25;;
45236;SDS011;30973;51.442;3.580;2023-08-08T12:20:44;4.20;;;1.40;;
45236;SDS011;30973;51.442;3.580;2023-08-08T12:23:11;3.53;;;1.30;;
45236;SDS011;30973;51.442;3.580;2023-08-08T12:25:38;4.50;;;1.80;;
45236;SDS011;30973;51.442;3.580;2023-08-08T12:28:05;3.17;;;1.42;;
45236;SDS011;30973;51.442;3.580;2023-08-08T12:30:32;4.72;;;1.40;;
45236;SDS011;30973;51.442;3.580;2023-08-08T12:33:00;3.45;;;1.25;;
45236;SDS011;30973;51.442;3.580;2023-08-08T12:35:27;5.47;;;1.83;;
45236;SDS011;30973;51.442;3.580;2023-08-08T12:37:54;5.72;;;2.15;;
45236;SDS011;30973;51.442;3.580;2023-08-08T12:40:20;4.40;;;2.00;;
45236;SDS011;30973;51.442;3.580;2023-08-08T12:42:47;8.25;;;2.65;;
45236;SDS011;30973;51.442;3.580;2023-08-08T12:45:14;4.97;;;2.00;;
45236;SDS011;30973;51.442;3.580;2023-08-08T12:47:41;4.78;;;1.92;;
45236;SDS011;30973;51.442;3.580;2023-08-08T12:50:07;5.63;;;1.80;;
45236;SDS011;30973;51.442;3.580;2023-08-08T12:52:34;7.35;;;2.25;;
45236;SDS011;30973;51.442;3.580;2023-08-08T12:55:01;5.07;;;1.90;;
45236;SDS011;30973;51.442;3.580;2023-08-08T12:57:28;6.43;;;1.77;;
45236;SDS011;30973;51.442;3.580;2023-08-08T12:59:55;5.40;;;1.67;;
45236;SDS011;30973;51.442;3.580;2023-08-08T13:02:21;4.32;;;2.05;;
45236;SDS011;30973;51.442;3.580;2023-08-08T13:04:48;4.20;;;1.88;;
45236;SDS011;30973;51.442;3.580;2023-08-08T13:07:15;4.35;;;1.65;;
45236;SDS011;30973;51.442;3.580;2023-08-08T13:09:42;6.43;;;2.00;;
45236;SDS011;30973;51.442;3.580;2023-08-08T13:12:09;5.60;;;2.10;;
45236;SDS011;30973;51.442;3.580;2023-08-08T13:14:35;6.72;;;2.20;;
45236;SDS011;30973;51.442;3.580;2023-08-08T13:17:02;6.68;;;2.30;;
45236;SDS011;30973;51.442;3.580;2023-08-08T13:19:29;6.90;;;2.20;;
45236;SDS011;30973;51.442;3.580;2023-08-08T13:21:56;6.28;;;2.47;;
45236;SDS011;30973;51.442;3.580;2023-08-08T13:24:22;5.75;;;2.08;;
45236;SDS011;30973;51.442;3.580;2023-08-08T13:26:49;5.60;;;2.30;;
45236;SDS011;30973;51.442;3.580;2023-08-08T13:29:16;6.30;;;2.33;;
45236;SDS011;30973;51.442;3.580;2023-08-08T13:31:43;5.40;;;2.28;;
45236;SDS011;30973;51.442;3.580;2023-08-08T13:34:09;6.00;;;2.25;;
45236;SDS011;30973;51.442;3.580;2023-08-08T13:36:36;3.92;;;1.58;;
45236;SDS011;30973;51.442;3.580;2023-08-08T13:39:03;5.40;;;1.67;;
45236;SDS011;30973;51.442;3.580;2023-08-08T13:41:30;9.15;;;2.20;;
45236;SDS011;30973;51.442;3.580;2023-08-08T13:43:57;7.25;;;1.92;;
45236;SDS011;30973;51.442;3.580;2023-08-08T13:46:23;5.65;;;1.67;;
45236;SDS011;30973;51.442;3.580;2023-08-08T13:48:50;4.85;;;2.13;;
45236;SDS011;30973;51.442;3.580;2023-08-08T13:51:17;7.68;;;2.22;;
45236;SDS011;30973;51.442;3.580;2023-08-08T13:53:43;7.10;;;2.10;;
45236;SDS011;30973;51.442;3.580;2023-08-08T13:56:11;3.80;;;1.90;;
45236;SDS011;30973;51.442;3.580;2023-08-08T13:58:38;6.32;;;2.20;;
45236;SDS011;30973;51.442;3.580;2023-08-08T14:01:04;5.57;;;1.88;;
45236;SDS011;30973;51.442;3.580;2023-08-08T14:03:31;4.45;;;2.05;;
45236;SDS011;30973;51.442;3.580;2023-08-08T14:05:58;5.45;;;1.75;;
45236;SDS011;30973;51.442;3.580;2023-08-08T14:08:24;5.50;;;2.40;;
45236;SDS011;30973;51.442;3.580;2023-08-08T14:10:51;5.03;;;1.75;;
45236;SDS011;30973;51.442;3.580;2023-08-08T14:13:17;4.97;;;1.85;;
45236;SDS011;30973;51.442;3.580;2023-08-08T14:15:45;6.15;;;1.88;;
45236;SDS011;30973;51.442;3.580;2023-08-08T14:18:12;4.70;;;1.70;;
45236;SDS011;30973;51.442;3.580;2023-08-08T14:20:39;4.60;;;1.77;;
45236;SDS011;30973;51.442;3.580;2023-08-08T14:23:05;5.47;;;1.90;;
45236;SDS011;30973;51.442;3.580;2023-08-08T14:25:32;4.65;;;1.67;;
45236;SDS011;30973;51.442;3.580;2023-08-08T14:27:59;6.25;;;1.52;;
45236;SDS011;30973;51.442;3.580;2023-08-08T14:30:27;5.75;;;1.77;;
45236;SDS011;30973;51.442;3.580;2023-08-08T14:32:54;5.63;;;1.70;;
45236;SDS011;30973;51.442;3.580;2023-08-08T14:35:21;2.80;;;1.52;;
45236;SDS011;30973;51.442;3.580;2023-08-08T14:37:47;7.13;;;1.75;;
45236;SDS011;30973;51.442;3.580;2023-08-08T14:40:14;5.35;;;1.85;;
45236;SDS011;30973;51.442;3.580;2023-08-08T14:42:41;7.28;;;2.40;;
45236;SDS011;30973;51.442;3.580;2023-08-08T14:45:07;6.13;;;1.85;;
45236;SDS011;30973;51.442;3.580;2023-08-08T14:47:34;4.57;;;1.70;;